createdAt,value
2023-04-29T00:00:32.988Z,1004.31
2023-04-29T00:01:33.002Z,1004.28
2023-04-29T00:02:33.089Z,1004.25
2023-04-29T00:03:33.323Z,1004.26
2023-04-29T00:04:33.241Z,1004.20
2023-04-29T00:05:33.158Z,1004.25
2023-04-29T00:06:33.080Z,1004.16
2023-04-29T00:07:33.098Z,1004.16
2023-04-29T00:08:33.116Z,1004.18
2023-04-29T00:09:33.141Z,1004.17
2023-04-29T00:10:33.153Z,1004.18
2023-04-29T00:11:33.173Z,1004.21
2023-04-29T00:12:33.187Z,1004.21
2023-04-29T00:13:33.193Z,1004.19
2023-04-29T00:14:33.211Z,1004.17
2023-04-29T00:15:33.230Z,1004.10
2023-04-29T00:16:33.350Z,1004.11
2023-04-29T00:17:33.294Z,1004.12
2023-04-29T00:18:33.272Z,1004.11
2023-04-29T00:19:33.290Z,1004.13
2023-04-29T00:20:33.322Z,1004.14
2023-04-29T00:21:33.321Z,1004.16
2023-04-29T00:22:33.347Z,1004.12
2023-04-29T00:23:33.350Z,1004.06
2023-04-29T00:24:33.369Z,1004.05
2023-04-29T00:25:33.390Z,1004.10
2023-04-29T00:26:33.405Z,1004.11
2023-04-29T00:27:33.419Z,1004.08
2023-04-29T00:28:33.440Z,1004.11
2023-04-29T00:29:33.447Z,1004.12
2023-04-29T00:30:33.467Z,1004.11
2023-04-29T00:31:33.527Z,1004.13
2023-04-29T00:32:33.566Z,1004.14
2023-04-29T00:33:33.526Z,1004.17
2023-04-29T00:34:33.546Z,1004.18
2023-04-29T00:35:33.550Z,1004.14
2023-04-29T00:36:33.554Z,1004.13
2023-04-29T00:37:33.571Z,1004.16
2023-04-29T00:38:33.589Z,1004.13
2023-04-29T00:39:33.602Z,1004.11
2023-04-29T00:40:33.619Z,1004.08
2023-04-29T00:41:33.640Z,1004.11
2023-04-29T00:42:33.651Z,1004.10
2023-04-29T00:43:33.665Z,1004.09
2023-04-29T00:44:33.686Z,1004.12
2023-04-29T00:45:33.699Z,1004.09
2023-04-29T00:46:33.774Z,1004.08
2023-04-29T00:47:33.749Z,1004.13
2023-04-29T00:48:33.744Z,1004.12
2023-04-29T00:49:33.758Z,1004.12
2023-04-29T00:50:33.786Z,1004.16
2023-04-29T00:51:33.792Z,1004.17
2023-04-29T00:52:33.808Z,1004.23
2023-04-29T00:53:33.824Z,1004.25
2023-04-29T00:54:33.846Z,1004.26
2023-04-29T00:55:33.860Z,1004.29
2023-04-29T00:56:33.870Z,1004.34
2023-04-29T00:57:33.888Z,1004.32
2023-04-29T00:58:33.924Z,1004.28
2023-04-29T00:59:34.015Z,1004.22
2023-04-29T01:00:33.938Z,1004.21
2023-04-29T01:01:33.976Z,1004.10
2023-04-29T01:02:34.093Z,1004.03
2023-04-29T01:03:34.116Z,1003.92
2023-04-29T01:04:34.044Z,1003.94
2023-04-29T01:05:34.031Z,1003.94
2023-04-29T01:06:34.028Z,1003.90
2023-04-29T01:07:34.044Z,1003.87
2023-04-29T01:08:34.059Z,1003.88
2023-04-29T01:09:34.077Z,1003.88
2023-04-29T01:10:34.094Z,1003.94
2023-04-29T01:11:34.112Z,1003.91
2023-04-29T01:12:34.129Z,1003.94
2023-04-29T01:13:34.140Z,1003.97
2023-04-29T01:14:34.153Z,1004.02
2023-04-29T01:15:34.171Z,1004.05
2023-04-29T01:16:34.287Z,1004.05
2023-04-29T01:17:34.231Z,1004.05
2023-04-29T01:18:34.215Z,1004.07
2023-04-29T01:19:34.238Z,1004.07
2023-04-29T01:20:34.243Z,1004.08
2023-04-29T01:21:34.263Z,1004.09
2023-04-29T01:22:34.275Z,1004.05
2023-04-29T01:23:34.293Z,1004.07
2023-04-29T01:24:34.310Z,1004.10
2023-04-29T01:25:34.322Z,1004.10
2023-04-29T01:26:34.332Z,1004.09
2023-04-29T01:27:34.353Z,1004.09
2023-04-29T01:28:34.365Z,1004.07
2023-04-29T01:29:34.392Z,1004.05
2023-04-29T01:30:34.402Z,1004.03
2023-04-29T01:31:34.472Z,1004.09
2023-04-29T01:32:34.711Z,1004.04
2023-04-29T01:33:34.455Z,1004.11
2023-04-29T01:34:34.457Z,1004.05
2023-04-29T01:35:34.471Z,1004.05
2023-04-29T01:36:34.491Z,1004.03
2023-04-29T01:37:34.501Z,1004.05
2023-04-29T01:38:34.514Z,1004.05
2023-04-29T01:39:34.529Z,1004.07
2023-04-29T01:40:34.549Z,1004.02
2023-04-29T01:41:34.560Z,1004.00
2023-04-29T01:42:34.575Z,1003.98
2023-04-29T01:43:34.589Z,1004.03
2023-04-29T01:44:34.603Z,1004.01
2023-04-29T01:45:34.642Z,1003.99
2023-04-29T01:46:34.651Z,1004.02
2023-04-29T01:47:34.680Z,1004.02
2023-04-29T01:48:34.699Z,1004.02
2023-04-29T01:49:34.684Z,1004.00
2023-04-29T01:50:34.691Z,1004.01
2023-04-29T01:51:34.717Z,1004.02
2023-04-29T01:52:34.725Z,1003.99
2023-04-29T01:53:34.738Z,1003.98
2023-04-29T01:54:34.749Z,1003.97
2023-04-29T01:55:34.768Z,1003.94
2023-04-29T01:56:34.781Z,1003.94
2023-04-29T01:57:34.800Z,1003.88
2023-04-29T01:58:34.810Z,1003.92
2023-04-29T01:59:34.833Z,1003.93
2023-04-29T02:00:34.895Z,1003.92
2023-04-29T02:01:34.856Z,1003.89
2023-04-29T02:02:34.941Z,1003.87
2023-04-29T02:03:34.976Z,1003.94
2023-04-29T02:04:34.989Z,1003.90
2023-04-29T02:05:34.914Z,1003.91
2023-04-29T02:06:34.929Z,1003.91
2023-04-29T02:07:34.943Z,1003.90
2023-04-29T02:08:34.955Z,1003.86
2023-04-29T02:09:34.970Z,1003.88
2023-04-29T02:10:34.989Z,1003.84
2023-04-29T02:11:35.002Z,1003.94
2023-04-29T02:12:35.016Z,1003.91
2023-04-29T02:13:35.040Z,1003.88
2023-04-29T02:14:36.902Z,1003.90
2023-04-29T02:15:35.061Z,1003.90
2023-04-29T02:16:35.121Z,1003.84
2023-04-29T02:17:35.100Z,1003.91
2023-04-29T02:18:35.104Z,1003.88
2023-04-29T02:19:35.127Z,1003.83
2023-04-29T02:20:35.132Z,1003.78
2023-04-29T02:21:35.192Z,1003.76
2023-04-29T02:22:35.166Z,1003.78
2023-04-29T02:23:35.176Z,1003.80
2023-04-29T02:24:35.196Z,1003.83
2023-04-29T02:25:35.208Z,1003.78
2023-04-29T02:26:35.223Z,1003.77
2023-04-29T02:27:35.238Z,1003.79
2023-04-29T02:28:35.261Z,1003.78
2023-04-29T02:29:35.270Z,1003.78
2023-04-29T02:30:35.283Z,1003.77
2023-04-29T02:31:35.301Z,1003.72
2023-04-29T02:32:35.328Z,1003.75
2023-04-29T02:33:35.323Z,1003.75
2023-04-29T02:34:35.338Z,1003.80
2023-04-29T02:35:35.353Z,1003.77
2023-04-29T02:36:35.376Z,1003.79
2023-04-29T02:37:35.384Z,1003.80
2023-04-29T02:38:35.401Z,1003.78
2023-04-29T02:39:35.411Z,1003.79
2023-04-29T02:40:35.434Z,1003.76
2023-04-29T02:41:35.447Z,1003.82
2023-04-29T02:42:35.457Z,1003.79
2023-04-29T02:43:35.490Z,1003.81
2023-04-29T02:44:35.490Z,1003.81
2023-04-29T02:45:35.561Z,1003.83
2023-04-29T02:46:35.534Z,1003.82
2023-04-29T02:47:35.543Z,1003.84
2023-04-29T02:48:35.547Z,1003.80
2023-04-29T02:49:35.560Z,1003.80
2023-04-29T02:50:35.576Z,1003.79
2023-04-29T02:51:35.592Z,1003.80
2023-04-29T02:52:35.605Z,1003.77
2023-04-29T02:53:35.629Z,1003.76
2023-04-29T02:54:35.640Z,1003.76
2023-04-29T02:55:35.648Z,1003.76
2023-04-29T02:56:35.666Z,1003.74
2023-04-29T02:57:35.677Z,1003.75
2023-04-29T02:58:35.694Z,1003.72
2023-04-29T02:59:35.705Z,1003.73
2023-04-29T03:00:35.726Z,1003.72
2023-04-29T03:01:35.757Z,1003.73
2023-04-29T03:02:35.906Z,1003.71
2023-04-29T03:03:35.992Z,1003.70
2023-04-29T03:04:35.784Z,1003.72
2023-04-29T03:05:35.803Z,1003.72
2023-04-29T03:06:35.816Z,1003.78
2023-04-29T03:07:35.826Z,1003.77
2023-04-29T03:08:35.852Z,1003.75
2023-04-29T03:09:35.854Z,1003.75
2023-04-29T03:10:35.864Z,1003.73
2023-04-29T03:11:35.887Z,1003.73
2023-04-29T03:12:35.896Z,1003.75
2023-04-29T03:13:35.922Z,1003.71
2023-04-29T03:14:35.929Z,1003.70
2023-04-29T03:15:35.940Z,1003.69
2023-04-29T03:16:35.990Z,1003.72
2023-04-29T03:17:35.999Z,1003.73
2023-04-29T03:18:35.993Z,1003.71
2023-04-29T03:19:35.997Z,1003.71
2023-04-29T03:20:36.013Z,1003.74
2023-04-29T03:21:36.026Z,1003.73
2023-04-29T03:22:36.044Z,1003.70
2023-04-29T03:23:36.051Z,1003.69
2023-04-29T03:24:36.081Z,1003.69
2023-04-29T03:25:36.114Z,1003.69
2023-04-29T03:26:36.103Z,1003.64
2023-04-29T03:27:36.112Z,1003.67
2023-04-29T03:28:36.132Z,1003.67
2023-04-29T03:29:36.151Z,1003.62
2023-04-29T03:30:36.164Z,1003.62
2023-04-29T03:31:36.187Z,1003.63
2023-04-29T03:32:36.230Z,1003.63
2023-04-29T03:33:36.198Z,1003.63
2023-04-29T03:34:36.215Z,1003.63
2023-04-29T03:35:36.229Z,1003.64
2023-04-29T03:36:36.246Z,1003.66
2023-04-29T03:37:36.262Z,1003.59
2023-04-29T03:38:36.268Z,1003.68
2023-04-29T03:39:36.291Z,1003.62
2023-04-29T03:40:36.304Z,1003.68
2023-04-29T03:41:36.319Z,1003.64
2023-04-29T03:42:36.328Z,1003.65
2023-04-29T03:43:36.345Z,1003.64
2023-04-29T03:44:36.365Z,1003.59
2023-04-29T03:45:36.374Z,1003.59
2023-04-29T03:46:36.451Z,1003.61
2023-04-29T03:47:36.484Z,1003.60
2023-04-29T03:48:36.419Z,1003.62
2023-04-29T03:49:36.446Z,1003.60
2023-04-29T03:50:36.449Z,1003.58
2023-04-29T03:51:36.463Z,1003.60
2023-04-29T03:52:36.495Z,1003.61
2023-04-29T03:53:36.502Z,1003.62
2023-04-29T03:54:36.515Z,1003.60
2023-04-29T03:55:36.521Z,1003.60
2023-04-29T03:56:36.538Z,1003.62
2023-04-29T03:57:36.558Z,1003.60
2023-04-29T03:58:36.597Z,1003.63
2023-04-29T03:59:36.615Z,1003.60
2023-04-29T04:00:36.600Z,1003.62
2023-04-29T04:01:36.669Z,1003.63
2023-04-29T04:02:36.893Z,1003.67
2023-04-29T04:03:36.757Z,1003.66
2023-04-29T04:04:36.824Z,1003.68
2023-04-29T04:05:36.671Z,1003.67
2023-04-29T04:06:36.684Z,1003.70
2023-04-29T04:07:36.712Z,1003.71
2023-04-29T04:08:36.734Z,1003.71
2023-04-29T04:09:36.732Z,1003.73
2023-04-29T04:10:36.751Z,1003.74
2023-04-29T04:11:36.762Z,1003.73
2023-04-29T04:12:36.775Z,1003.74
2023-04-29T04:13:36.793Z,1003.70
2023-04-29T04:14:36.807Z,1003.76
2023-04-29T04:15:36.835Z,1003.75
2023-04-29T04:16:36.908Z,1003.83
2023-04-29T04:17:36.871Z,1003.82
2023-04-29T04:18:36.863Z,1003.80
2023-04-29T04:19:36.894Z,1003.78
2023-04-29T04:20:36.899Z,1003.82
2023-04-29T04:21:36.909Z,1003.81
2023-04-29T04:22:36.933Z,1003.79
2023-04-29T04:23:36.938Z,1003.80
2023-04-29T04:24:36.955Z,1003.77
2023-04-29T04:25:36.979Z,1003.79
2023-04-29T04:26:36.986Z,1003.79
2023-04-29T04:27:37.012Z,1003.77
2023-04-29T04:28:37.016Z,1003.78
2023-04-29T04:29:37.040Z,1003.76
2023-04-29T04:30:37.054Z,1003.79
2023-04-29T04:31:37.110Z,1003.79
2023-04-29T04:32:37.111Z,1003.81
2023-04-29T04:33:37.096Z,1003.80
2023-04-29T04:34:37.141Z,1003.82
2023-04-29T04:35:37.149Z,1003.79
2023-04-29T04:36:37.151Z,1003.78
2023-04-29T04:37:37.163Z,1003.79
2023-04-29T04:38:37.181Z,1003.81
2023-04-29T04:39:37.188Z,1003.79
2023-04-29T04:40:37.204Z,1003.84
2023-04-29T04:41:37.221Z,1003.87
2023-04-29T04:42:37.232Z,1003.84
2023-04-29T04:43:37.265Z,1003.80
2023-04-29T04:44:37.266Z,1003.86
2023-04-29T04:45:37.363Z,1003.85
2023-04-29T04:46:37.297Z,1003.86
2023-04-29T04:47:37.365Z,1003.84
2023-04-29T04:48:37.325Z,1003.87
2023-04-29T04:49:37.340Z,1003.86
2023-04-29T04:50:37.355Z,1003.87
2023-04-29T04:51:37.373Z,1003.86
2023-04-29T04:52:37.387Z,1003.91
2023-04-29T04:53:37.404Z,1003.89
2023-04-29T04:54:37.419Z,1003.86
2023-04-29T04:55:37.435Z,1003.91
2023-04-29T04:56:37.449Z,1003.88
2023-04-29T04:57:37.481Z,1003.88
2023-04-29T04:58:37.478Z,1003.90
2023-04-29T04:59:37.499Z,1003.89
2023-04-29T05:00:37.510Z,1003.88
2023-04-29T05:01:37.640Z,1003.91
2023-04-29T05:02:37.752Z,1003.91
2023-04-29T05:03:37.723Z,1003.92
2023-04-29T05:04:37.569Z,1003.91
2023-04-29T05:05:37.585Z,1003.91
2023-04-29T05:06:37.635Z,1003.94
2023-04-29T05:07:37.618Z,1003.92
2023-04-29T05:08:37.633Z,1003.94
2023-04-29T05:09:37.653Z,1003.93
2023-04-29T05:10:37.668Z,1003.91
2023-04-29T05:11:37.678Z,1003.93
2023-04-29T05:12:37.703Z,1003.93
2023-04-29T05:13:37.711Z,1003.93
2023-04-29T05:14:37.726Z,1003.95
2023-04-29T05:15:37.753Z,1003.91
2023-04-29T05:16:37.800Z,1003.93
2023-04-29T05:17:37.814Z,1003.94
2023-04-29T05:18:37.784Z,1003.96
2023-04-29T05:19:37.801Z,1003.95
2023-04-29T05:20:37.819Z,1003.97
2023-04-29T05:21:37.829Z,1003.98
2023-04-29T05:22:37.848Z,1003.98
2023-04-29T05:23:37.863Z,1003.95
2023-04-29T05:24:37.886Z,1004.00
2023-04-29T05:25:37.898Z,1004.00
2023-04-29T05:26:37.913Z,1004.02
2023-04-29T05:27:37.924Z,1004.01
2023-04-29T05:28:37.956Z,1004.01
2023-04-29T05:29:37.965Z,1004.00
2023-04-29T05:30:38.146Z,1004.03
2023-04-29T05:31:37.990Z,1004.02
2023-04-29T05:32:38.063Z,1004.04
2023-04-29T05:33:38.018Z,1004.04
2023-04-29T05:34:38.034Z,1004.03
2023-04-29T05:35:38.049Z,1004.03
2023-04-29T05:36:38.093Z,1004.06
2023-04-29T05:37:38.082Z,1004.09
2023-04-29T05:38:38.099Z,1004.08
2023-04-29T05:39:38.110Z,1004.02
2023-04-29T05:40:38.143Z,1004.09
2023-04-29T05:41:38.157Z,1004.06
2023-04-29T05:42:38.172Z,1004.07
2023-04-29T05:43:38.181Z,1004.06
2023-04-29T05:44:38.191Z,1004.06
2023-04-29T05:45:38.208Z,1004.10
2023-04-29T05:46:38.296Z,1004.13
2023-04-29T05:47:38.330Z,1004.09
2023-04-29T05:48:38.254Z,1004.11
2023-04-29T05:49:38.274Z,1004.12
2023-04-29T05:50:38.282Z,1004.12
2023-04-29T05:51:38.302Z,1004.16
2023-04-29T05:52:38.315Z,1004.18
2023-04-29T05:53:38.335Z,1004.18
2023-04-29T05:54:38.348Z,1004.20
2023-04-29T05:55:38.380Z,1004.21
2023-04-29T05:56:38.379Z,1004.18
2023-04-29T05:57:38.393Z,1004.20
2023-04-29T05:58:38.410Z,1004.21
2023-04-29T05:59:38.421Z,1004.22
2023-04-29T06:00:38.456Z,1004.20
2023-04-29T06:01:38.457Z,1004.15
2023-04-29T06:02:47.236Z,1004.18
2023-04-29T06:03:38.599Z,1004.19
2023-04-29T06:04:38.814Z,1004.24
2023-04-29T06:05:39.021Z,1004.25
2023-04-29T06:06:38.577Z,1004.26
2023-04-29T06:07:38.572Z,1004.21
2023-04-29T06:08:38.571Z,1004.28
2023-04-29T06:09:38.583Z,1004.22
2023-04-29T06:10:38.604Z,1004.29
2023-04-29T06:11:38.617Z,1004.25
2023-04-29T06:12:38.627Z,1004.32
2023-04-29T06:13:38.648Z,1004.25
2023-04-29T06:14:38.661Z,1004.28
2023-04-29T06:15:38.696Z,1004.25
2023-04-29T06:16:38.784Z,1004.30
2023-04-29T06:17:38.743Z,1004.31
2023-04-29T06:18:38.727Z,1004.29
2023-04-29T06:19:38.742Z,1004.27
2023-04-29T06:20:38.760Z,1004.33
2023-04-29T06:21:38.775Z,1004.35
2023-04-29T06:22:38.799Z,1004.33
2023-04-29T06:23:38.809Z,1004.35
2023-04-29T06:24:38.824Z,1004.39
2023-04-29T06:25:38.840Z,1004.35
2023-04-29T06:26:38.855Z,1004.35
2023-04-29T06:27:38.872Z,1004.36
2023-04-29T06:28:38.889Z,1004.39
2023-04-29T06:29:38.903Z,1004.42
2023-04-29T06:30:38.917Z,1004.39
2023-04-29T06:31:38.980Z,1004.43
2023-04-29T06:32:38.966Z,1004.44
2023-04-29T06:33:38.969Z,1004.47
2023-04-29T06:34:38.983Z,1004.48
2023-04-29T06:35:38.998Z,1004.51
2023-04-29T06:36:39.022Z,1004.51
2023-04-29T06:37:39.029Z,1004.54
2023-04-29T06:38:39.058Z,1004.57
2023-04-29T06:39:39.060Z,1004.55
2023-04-29T06:40:39.079Z,1004.53
2023-04-29T06:41:39.098Z,1004.59
2023-04-29T06:42:39.112Z,1004.56
2023-04-29T06:43:39.126Z,1004.59
2023-04-29T06:44:39.143Z,1004.64
2023-04-29T06:45:39.175Z,1004.60
2023-04-29T06:46:39.258Z,1004.60
2023-04-29T06:47:39.228Z,1004.60
2023-04-29T06:48:39.209Z,1004.62
2023-04-29T06:49:39.263Z,1004.64
2023-04-29T06:50:39.238Z,1004.64
2023-04-29T06:51:39.269Z,1004.69
2023-04-29T06:52:39.275Z,1004.70
2023-04-29T06:53:39.285Z,1004.73
2023-04-29T06:54:39.298Z,1004.71
2023-04-29T06:55:39.317Z,1004.68
2023-04-29T06:56:39.360Z,1004.78
2023-04-29T06:57:39.348Z,1004.82
2023-04-29T06:58:39.364Z,1004.89
2023-04-29T06:59:39.392Z,1004.86
2023-04-29T07:00:39.400Z,1004.87
2023-04-29T07:01:40.697Z,1004.82
2023-04-29T07:02:39.549Z,1004.85
2023-04-29T07:03:39.541Z,1004.84
2023-04-29T07:04:39.520Z,1004.84
2023-04-29T07:05:39.475Z,1004.87
2023-04-29T07:06:39.500Z,1004.89
2023-04-29T07:07:39.511Z,1004.91
2023-04-29T07:08:39.522Z,1004.88
2023-04-29T07:09:39.540Z,1004.88
2023-04-29T07:10:39.556Z,1004.89
2023-04-29T07:11:39.573Z,1004.91
2023-04-29T07:12:39.589Z,1004.90
2023-04-29T07:13:39.606Z,1004.93
2023-04-29T07:14:39.619Z,1004.91
2023-04-29T07:15:39.634Z,1004.97
2023-04-29T07:16:39.741Z,1005.01
2023-04-29T07:17:39.703Z,1004.97
2023-04-29T07:18:39.700Z,1005.00
2023-04-29T07:19:39.706Z,1004.97
2023-04-29T07:20:39.722Z,1005.02
2023-04-29T07:21:39.743Z,1005.01
2023-04-29T07:22:39.745Z,1004.99
2023-04-29T07:23:39.763Z,1004.96
2023-04-29T07:24:39.777Z,1004.99
2023-04-29T07:25:39.796Z,1005.00
2023-04-29T07:26:39.813Z,1005.01
2023-04-29T07:27:39.837Z,1005.15
2023-04-29T07:28:39.842Z,1005.11
2023-04-29T07:29:39.854Z,1005.15
2023-04-29T07:30:39.939Z,1005.16
2023-04-29T07:31:39.889Z,1005.16
2023-04-29T07:32:39.926Z,1005.16
2023-04-29T07:33:39.920Z,1005.14
2023-04-29T07:34:39.935Z,1005.18
2023-04-29T07:35:39.950Z,1005.19
2023-04-29T07:36:39.971Z,1005.21
2023-04-29T07:37:41.036Z,1005.20
2023-04-29T07:38:39.993Z,1005.27
2023-04-29T07:39:40.030Z,1005.28
2023-04-29T07:40:40.045Z,1005.28
2023-04-29T07:41:40.039Z,1005.27
2023-04-29T07:42:40.061Z,1005.30
2023-04-29T07:43:42.260Z,1005.35
2023-04-29T07:44:40.087Z,1005.35
2023-04-29T07:45:40.104Z,1005.36
2023-04-29T07:46:40.205Z,1005.37
2023-04-29T07:47:40.157Z,1005.38
2023-04-29T07:48:40.152Z,1005.45
2023-04-29T07:49:40.167Z,1005.42
2023-04-29T07:50:40.208Z,1005.43
2023-04-29T07:51:40.197Z,1005.42
2023-04-29T07:52:40.210Z,1005.47
2023-04-29T07:53:40.227Z,1005.46
2023-04-29T07:54:40.244Z,1005.57
2023-04-29T07:55:40.273Z,1005.58
2023-04-29T07:56:40.274Z,1005.55
2023-04-29T07:57:40.291Z,1005.59
2023-04-29T07:58:40.309Z,1005.63
2023-04-29T07:59:40.325Z,1005.57
2023-04-29T08:00:40.336Z,1005.66
2023-04-29T08:01:40.363Z,1005.65
2023-04-29T08:02:40.501Z,1005.68
2023-04-29T08:03:41.972Z,1005.70
2023-04-29T08:04:40.587Z,1005.73
2023-04-29T08:05:40.532Z,1005.75
2023-04-29T08:06:40.432Z,1005.79
2023-04-29T08:07:40.449Z,1005.78
2023-04-29T08:08:40.471Z,1005.78
2023-04-29T08:09:40.482Z,1005.82
2023-04-29T08:10:40.503Z,1005.80
2023-04-29T08:11:40.518Z,1005.86
2023-04-29T08:12:40.525Z,1005.87
2023-04-29T08:13:40.541Z,1005.93
2023-04-29T08:14:40.598Z,1005.89
2023-04-29T08:15:40.611Z,1005.91
2023-04-29T08:16:40.657Z,1005.89
2023-04-29T08:17:40.646Z,1005.95
2023-04-29T08:18:40.651Z,1005.98
2023-04-29T08:19:40.642Z,1006.03
2023-04-29T08:20:40.658Z,1006.04
2023-04-29T08:21:40.685Z,1006.05
2023-04-29T08:22:40.685Z,1006.06
2023-04-29T08:23:40.710Z,1006.03
2023-04-29T08:24:40.715Z,1006.05
2023-04-29T08:25:40.728Z,1006.10
2023-04-29T08:26:40.742Z,1006.13
2023-04-29T08:27:40.756Z,1006.18
2023-04-29T08:28:40.772Z,1006.16
2023-04-29T08:29:40.788Z,1006.19
2023-04-29T08:30:40.815Z,1006.19
2023-04-29T08:31:40.849Z,1006.23
2023-04-29T08:32:40.858Z,1006.24
2023-04-29T08:33:40.849Z,1006.25
2023-04-29T08:34:40.870Z,1006.30
2023-04-29T08:35:40.879Z,1006.27
2023-04-29T08:36:40.899Z,1006.26
2023-04-29T08:37:40.912Z,1006.33
2023-04-29T08:38:40.928Z,1006.36
2023-04-29T08:39:40.950Z,1006.38
2023-04-29T08:40:40.959Z,1006.40
2023-04-29T08:41:40.985Z,1006.43
2023-04-29T08:42:40.990Z,1006.45
2023-04-29T08:43:41.100Z,1006.47
2023-04-29T08:44:41.312Z,1006.37
2023-04-29T08:45:41.065Z,1006.48
2023-04-29T08:46:41.050Z,1006.49
2023-04-29T08:47:41.223Z,1006.40
2023-04-29T08:48:43.347Z,1006.50
2023-04-29T08:49:41.099Z,1006.51
2023-04-29T08:50:41.108Z,1006.48
2023-04-29T08:51:41.127Z,1006.52
2023-04-29T08:52:41.152Z,1006.54
2023-04-29T08:53:41.174Z,1006.57
2023-04-29T08:54:41.174Z,1006.61
2023-04-29T08:55:41.192Z,1006.64
2023-04-29T08:56:41.219Z,1006.63
2023-04-29T08:57:41.226Z,1006.68
2023-04-29T08:58:41.454Z,1006.65
2023-04-29T08:59:41.258Z,1006.73
2023-04-29T09:00:41.269Z,1006.74
2023-04-29T09:01:41.307Z,1006.77
2023-04-29T09:02:41.374Z,1006.79
2023-04-29T09:03:41.423Z,1006.81
2023-04-29T09:04:41.426Z,1006.84
2023-04-29T09:05:41.348Z,1006.86
2023-04-29T09:06:41.361Z,1006.81
2023-04-29T09:07:41.389Z,1006.84
2023-04-29T09:08:41.393Z,1006.85
2023-04-29T09:09:41.403Z,1006.86
2023-04-29T09:10:41.417Z,1006.88
2023-04-29T09:11:41.435Z,1006.83
2023-04-29T09:12:41.450Z,1006.97
2023-04-29T09:13:41.473Z,1006.93
2023-04-29T09:14:41.483Z,1006.95
2023-04-29T09:15:41.516Z,1006.95
2023-04-29T09:16:41.583Z,1006.91
2023-04-29T09:17:41.595Z,1006.96
2023-04-29T09:18:41.560Z,1006.95
2023-04-29T09:19:41.556Z,1006.99
2023-04-29T09:20:41.574Z,1006.98
2023-04-29T09:21:41.591Z,1006.99
2023-04-29T09:22:41.611Z,1006.97
2023-04-29T09:23:41.621Z,1006.98
2023-04-29T09:24:41.636Z,1007.02
2023-04-29T09:25:41.659Z,1007.03
2023-04-29T09:26:41.678Z,1007.07
2023-04-29T09:27:41.682Z,1007.08
2023-04-29T09:28:41.699Z,1007.19
2023-04-29T09:29:41.718Z,1007.17
2023-04-29T09:30:41.728Z,1007.13
2023-04-29T09:31:41.742Z,1007.17
2023-04-29T09:32:41.828Z,1007.19
2023-04-29T09:33:41.775Z,1007.20
2023-04-29T09:34:41.793Z,1007.22
2023-04-29T09:35:41.807Z,1007.18
2023-04-29T09:36:41.824Z,1007.29
2023-04-29T09:37:41.851Z,1007.28
2023-04-29T09:38:43.509Z,1007.27
2023-04-29T09:39:41.868Z,1007.32
2023-04-29T09:40:57.502Z,1007.35
2023-04-29T09:41:41.902Z,1007.34
2023-04-29T09:42:41.913Z,1007.33
2023-04-29T09:43:41.928Z,1007.40
2023-04-29T09:44:41.951Z,1007.39
2023-04-29T09:45:42.008Z,1007.45
2023-04-29T09:46:42.033Z,1007.51
2023-04-29T09:47:42.029Z,1007.47
2023-04-29T09:48:42.001Z,1007.51
2023-04-29T09:49:42.030Z,1007.52
2023-04-29T09:50:42.038Z,1007.55
2023-04-29T09:51:42.061Z,1007.56
2023-04-29T09:52:42.069Z,1007.56
2023-04-29T09:53:42.080Z,1007.60
2023-04-29T09:54:42.227Z,1007.65
2023-04-29T09:55:42.119Z,1007.62
2023-04-29T09:56:42.126Z,1007.65
2023-04-29T09:57:44.897Z,1007.63
2023-04-29T09:58:42.155Z,1007.65
2023-04-29T09:59:42.173Z,1007.69
2023-04-29T10:00:42.183Z,1007.75
2023-04-29T10:01:42.263Z,1007.77
2023-04-29T10:02:42.328Z,1007.76
2023-04-29T10:03:42.411Z,1007.75
2023-04-29T10:04:42.293Z,1007.78
2023-04-29T10:05:42.263Z,1007.82
2023-04-29T10:06:42.273Z,1007.85
2023-04-29T10:07:42.288Z,1007.82
2023-04-29T10:08:42.302Z,1007.79
2023-04-29T10:09:42.324Z,1007.86
2023-04-29T10:10:42.347Z,1007.83
2023-04-29T10:11:42.362Z,1007.87
2023-04-29T10:12:42.376Z,1007.83
2023-04-29T10:13:42.387Z,1007.84
2023-04-29T10:14:42.420Z,1007.92
2023-04-29T10:15:42.437Z,1007.95
2023-04-29T10:16:42.424Z,1007.95
2023-04-29T10:17:42.437Z,1007.91
2023-04-29T10:18:42.478Z,1007.94
2023-04-29T10:19:42.470Z,1007.94
2023-04-29T10:20:42.489Z,1008.01
2023-04-29T10:21:42.512Z,1008.04
2023-04-29T10:22:42.544Z,1008.01
2023-04-29T10:23:42.533Z,1007.98
2023-04-29T10:24:42.548Z,1007.99
2023-04-29T10:25:42.571Z,1007.99
2023-04-29T10:26:42.587Z,1007.98
2023-04-29T10:27:42.592Z,1007.99
2023-04-29T10:28:42.608Z,1007.97
2023-04-29T10:29:42.628Z,1008.01
2023-04-29T10:30:42.638Z,1008.03
2023-04-29T10:31:42.737Z,1008.08
2023-04-29T10:32:50.294Z,1008.07
2023-04-29T10:33:42.695Z,1008.10
2023-04-29T10:34:42.716Z,1008.10
2023-04-29T10:35:42.723Z,1008.06
2023-04-29T10:36:42.735Z,1008.09
2023-04-29T10:37:42.750Z,1008.09
2023-04-29T10:38:42.767Z,1008.08
2023-04-29T10:39:42.785Z,1008.06
2023-04-29T10:40:42.802Z,1008.14
2023-04-29T10:41:42.813Z,1008.16
2023-04-29T10:42:42.830Z,1008.16
2023-04-29T10:43:42.847Z,1008.17
2023-04-29T10:44:42.861Z,1008.22
2023-04-29T10:45:42.876Z,1008.25
2023-04-29T10:46:42.953Z,1008.18
2023-04-29T10:47:42.929Z,1008.24
2023-04-29T10:48:42.924Z,1008.25
2023-04-29T10:49:42.940Z,1008.27
2023-04-29T10:50:42.965Z,1008.28
2023-04-29T10:51:43.018Z,1008.28
2023-04-29T10:52:42.986Z,1008.31
2023-04-29T10:53:43.004Z,1008.42
2023-04-29T10:54:44.108Z,1008.32
2023-04-29T10:55:43.036Z,1008.28
2023-04-29T10:56:43.048Z,1008.34
2023-04-29T10:57:43.065Z,1008.36
2023-04-29T10:58:43.091Z,1008.33
2023-04-29T10:59:43.105Z,1008.36
2023-04-29T11:00:43.134Z,1008.45
2023-04-29T11:01:43.134Z,1008.39
2023-04-29T11:02:43.193Z,1008.46
2023-04-29T11:03:43.325Z,1008.51
2023-04-29T11:04:43.213Z,1008.53
2023-04-29T11:05:43.193Z,1008.48
2023-04-29T11:06:43.209Z,1008.42
2023-04-29T11:07:43.234Z,1008.41
2023-04-29T11:08:43.252Z,1008.46
2023-04-29T11:09:43.275Z,1008.36
2023-04-29T11:10:43.275Z,1008.42
2023-04-29T11:11:43.314Z,1008.46
2023-04-29T11:12:43.314Z,1008.44
2023-04-29T11:13:43.324Z,1008.49
2023-04-29T11:14:43.399Z,1008.60
2023-04-29T11:15:43.356Z,1008.66
2023-04-29T11:16:43.386Z,1008.64
2023-04-29T11:17:43.416Z,1008.71
2023-04-29T11:18:43.401Z,1008.77
2023-04-29T11:19:43.422Z,1008.71
2023-04-29T11:20:43.440Z,1008.74
2023-04-29T11:21:43.467Z,1008.67
2023-04-29T11:22:43.482Z,1008.70
2023-04-29T11:23:43.490Z,1008.69
2023-04-29T11:24:43.506Z,1008.71
2023-04-29T11:25:43.521Z,1008.72
2023-04-29T11:26:43.585Z,1008.74
2023-04-29T11:27:43.559Z,1008.83
2023-04-29T11:28:43.574Z,1008.86
2023-04-29T11:29:43.593Z,1008.90
2023-04-29T11:30:43.604Z,1008.88
2023-04-29T11:31:43.698Z,1008.88
2023-04-29T11:32:43.733Z,1008.85
2023-04-29T11:33:43.660Z,1008.79
2023-04-29T11:34:43.682Z,1008.77
2023-04-29T11:35:43.694Z,1008.76
2023-04-29T11:36:44.471Z,1008.83
2023-04-29T11:37:43.730Z,1008.77
2023-04-29T11:38:43.745Z,1008.76
2023-04-29T11:39:43.779Z,1008.73
2023-04-29T11:40:43.784Z,1008.82
2023-04-29T11:41:43.802Z,1008.83
2023-04-29T11:42:43.825Z,1008.93
2023-04-29T11:43:43.833Z,1008.87
2023-04-29T11:44:43.851Z,1008.92
2023-04-29T11:45:43.930Z,1008.81
2023-04-29T11:46:43.887Z,1008.79
2023-04-29T11:47:44.033Z,1008.79
2023-04-29T11:48:43.923Z,1008.80
2023-04-29T11:49:43.946Z,1008.75
2023-04-29T11:50:43.960Z,1008.84
2023-04-29T11:51:43.991Z,1008.86
2023-04-29T11:52:43.998Z,1008.85
2023-04-29T11:53:44.028Z,1008.84
2023-04-29T11:54:44.034Z,1008.94
2023-04-29T11:55:44.051Z,1009.01
2023-04-29T11:56:44.065Z,1009.08
2023-04-29T11:57:44.089Z,1009.21
2023-04-29T11:58:44.104Z,1009.17
2023-04-29T11:59:44.116Z,1009.18
2023-04-29T12:00:44.137Z,1009.17
2023-04-29T12:01:44.155Z,1009.19
2023-04-29T12:02:44.293Z,1009.18
2023-04-29T12:03:44.521Z,1009.19
2023-04-29T12:04:44.323Z,1009.13
2023-04-29T12:05:44.307Z,1009.10